Gladiator — A8MJ5 — position and weather

sailwx.info

Track history (hours):
 
Tides and Currents Weather Stations Pressure Air Temp Water Temp Dewpoint Dewpoint Depression Visibility Wind Speed Wind Dir Waves Ship Positions

Gladiator

Last reported at 2018-May-30 06:05 UTC. Time now 2018-Jun-25 04:32 UTC.
Position N 01°26' E 103°12'.
Warning: this ship's position is 25 days out of date.

Length 274 m; draft 8.9 m.

Type: Tanker. MMSI: 636013351.

Date/timePositionNaut miles runAvg speedWind from/ knotsBaromVisibWave heightAir tempDewpointWater temp
2018-May-30 06:05N 01°26' E 103°12'413.2
2018-May-30 05:49N 01°23' E 103°15'513.2
2018-May-30 05:27N 01°20' E 103°18'612.6
2018-May-30 05:00N 01°16' E 103°22'612.0
2018-May-30 04:29N 01°14' E 103°28'612.2
2018-May-30 04:00N 01°12' E 103°34'612.5
2018-May-30 03:30N 01°11' E 103°40'510.5
2018-May-30 03:00N 01°09' E 103°45'713.5
2018-May-30 02:30N 01°12' E 103°51'713.2
2018-May-30 02:00N 01°15' E 103°57'2 4.1
2018-May-30 01:27N 01°16' E 103°58'0 0.1
2018-May-30 01:01N 01°16' E 103°58'0 0.1
2018-May-30 00:27N 01°16' E 103°58'0 0.0
2018-May-29 23:55N 01°16' E 103°58'0 0.0
2018-May-29 23:28N 01°16' E 103°58'0 0.1
2018-May-29 22:52N 01°16' E 103°58'0 0.0
2018-May-29 22:28N 01°16' E 103°58'0 0.0
2018-May-29 21:55N 01°16' E 103°58'0 0.0
2018-May-29 21:22N 01°16' E 103°58'0 0.0
2018-May-29 20:59N 01°16' E 103°58'0 0.0
2018-May-29 20:16N 01°16' E 103°58'0 0.2
2018-May-29 19:58N 01°16' E 103°58'0 0.0
2018-May-29 19:26N 01°16' E 103°58'0 0.0
2018-May-29 19:00N 01°16' E 103°58'0 0.0
2018-May-29 18:25N 01°16' E 103°58'0 0.0
2018-May-29 17:55N 01°16' E 103°58'0 0.0
2018-May-29 17:15N 01°16' E 103°58'0 0.3
2018-May-29 16:52N 01°16' E 103°58'0 0.3
2018-May-29 16:30N 01°16' E 103°58'0 0.1
2018-May-29 15:52N 01°16' E 103°58'0 0.0
2018-May-29 15:30N 01°16' E 103°58'0 0.0
2018-May-29 15:01N 01°16' E 103°58'0 0.1
2018-May-29 14:25N 01°16' E 103°58'0 0.1
2018-May-29 13:55N 01°16' E 103°58'0 0.0
2018-May-29 13:29N 01°16' E 103°58'0 0.0
2018-May-29 12:49N 01°16' E 103°58'0 0.2
2018-May-29 12:31N 01°16' E 103°58'0 0.1
2018-May-29 11:52N 01°16' E 103°58'0 0.1
2018-May-29 11:25N 01°16' E 103°58'0 0.0
2018-May-29 10:59N 01°16' E 103°58'0 0.1
2018-May-29 10:16N 01°16' E 103°58'0 0.0
2018-May-29 09:58N 01°16' E 103°58'0 0.1
2018-May-29 09:28N 01°16' E 103°58'0 0.1
2018-May-29 08:55N 01°16' E 103°58'0 0.2
2018-May-29 08:22N 01°16' E 103°58'0 0.0
2018-May-29 07:43N 01°16' E 103°58'0 0.3
2018-May-29 07:28N 01°16' E 103°58'0 0.4
2018-May-29 06:51N 01°16' E 103°58'0 0.2
2018-May-29 06:25N 01°16' E 103°58'0 0.0
2018-May-29 05:58N 01°16' E 103°58'0 0.0
2018-May-29 05:25N 01°16' E 103°58'0 0.0
2018-May-29 05:00N 01°16' E 103°58'0 0.0
2018-May-29 04:30N 01°16' E 103°58'0 0.0
2018-May-29 04:00N 01°16' E 103°58'0 0.1
2018-May-29 03:30N 01°16' E 103°58'1 1.4
2018-May-29 03:00N 01°15' E 103°58'4 7.5
2018-May-29 02:30N 01°16' E 104°01'612.5
2018-May-29 02:00N 01°17' E 104°07'4 7.9
2018-May-29 01:30N 01°17' E 104°11'3 6.1
2018-May-29 00:59N 01°18' E 104°14'3 7.0
2018-May-29 00:30N 01°19' E 104°18'4 8.8
2018-May-29 00:00N 01°21' E 104°22'4 8.8
2018-May-28 23:30N 01°24' E 104°25'5 8.7
2018-May-28 22:58N 01°27' E 104°28'810.7
2018-May-28 22:16N 01°32' E 104°33'410.9
2018-May-28 21:55N 01°36' E 104°35'1610.5
2018-May-28 20:26N 01°49' E 104°44'  
Track history (hours):
 
Tides and Currents Weather Stations Pressure Air Temp Water Temp Dewpoint Dewpoint Depression Visibility Wind Speed Wind Dir Waves Ship Positions

Gladiator

Last reported at 2018-May-30 06:05 UTC. Time now 2018-Jun-25 04:32 UTC.
Position N 01°26' E 103°12'.
Warning: this ship's position is 25 days out of date.

Length 274 m; draft 8.9 m.

Type: Tanker. MMSI: 636013351.

Date/timePositionNaut miles runAvg speedWind from/ knotsBaromVisibWave heightAir tempDewpointWater temp
2018-May-30 06:05N 01°26' E 103°12'413.2
2018-May-30 05:49N 01°23' E 103°15'513.2
2018-May-30 05:27N 01°20' E 103°18'612.6
2018-May-30 05:00N 01°16' E 103°22'612.0
2018-May-30 04:29N 01°14' E 103°28'612.2
2018-May-30 04:00N 01°12' E 103°34'612.5
2018-May-30 03:30N 01°11' E 103°40'510.5
2018-May-30 03:00N 01°09' E 103°45'713.5
2018-May-30 02:30N 01°12' E 103°51'713.2
2018-May-30 02:00N 01°15' E 103°57'2 4.1
2018-May-30 01:27N 01°16' E 103°58'0 0.1
2018-May-30 01:01N 01°16' E 103°58'0 0.1
2018-May-30 00:27N 01°16' E 103°58'0 0.0
2018-May-29 23:55N 01°16' E 103°58'0 0.0
2018-May-29 23:28N 01°16' E 103°58'0 0.1
2018-May-29 22:52N 01°16' E 103°58'0 0.0
2018-May-29 22:28N 01°16' E 103°58'0 0.0
2018-May-29 21:55N 01°16' E 103°58'0 0.0
2018-May-29 21:22N 01°16' E 103°58'0 0.0
2018-May-29 20:59N 01°16' E 103°58'0 0.0
2018-May-29 20:16N 01°16' E 103°58'0 0.2
2018-May-29 19:58N 01°16' E 103°58'0 0.0
2018-May-29 19:26N 01°16' E 103°58'0 0.0
2018-May-29 19:00N 01°16' E 103°58'0 0.0
2018-May-29 18:25N 01°16' E 103°58'0 0.0
2018-May-29 17:55N 01°16' E 103°58'0 0.0
2018-May-29 17:15N 01°16' E 103°58'0 0.3
2018-May-29 16:52N 01°16' E 103°58'0 0.3
2018-May-29 16:30N 01°16' E 103°58'0 0.1
2018-May-29 15:52N 01°16' E 103°58'0 0.0
2018-May-29 15:30N 01°16' E 103°58'0 0.0
2018-May-29 15:01N 01°16' E 103°58'0 0.1
2018-May-29 14:25N 01°16' E 103°58'0 0.1
2018-May-29 13:55N 01°16' E 103°58'0 0.0
2018-May-29 13:29N 01°16' E 103°58'0 0.0
2018-May-29 12:49N 01°16' E 103°58'0 0.2
2018-May-29 12:31N 01°16' E 103°58'0 0.1
2018-May-29 11:52N 01°16' E 103°58'0 0.1
2018-May-29 11:25N 01°16' E 103°58'0 0.0
2018-May-29 10:59N 01°16' E 103°58'0 0.1
2018-May-29 10:16N 01°16' E 103°58'0 0.0
2018-May-29 09:58N 01°16' E 103°58'0 0.1
2018-May-29 09:28N 01°16' E 103°58'0 0.1
2018-May-29 08:55N 01°16' E 103°58'0 0.2
2018-May-29 08:22N 01°16' E 103°58'0 0.0
2018-May-29 07:43N 01°16' E 103°58'0 0.3
2018-May-29 07:28N 01°16' E 103°58'0 0.4
2018-May-29 06:51N 01°16' E 103°58'0 0.2
2018-May-29 06:25N 01°16' E 103°58'0 0.0
2018-May-29 05:58N 01°16' E 103°58'0 0.0
2018-May-29 05:25N 01°16' E 103°58'0 0.0
2018-May-29 05:00N 01°16' E 103°58'0 0.0
2018-May-29 04:30N 01°16' E 103°58'0 0.0
2018-May-29 04:00N 01°16' E 103°58'0 0.1
2018-May-29 03:30N 01°16' E 103°58'1 1.4
2018-May-29 03:00N 01°15' E 103°58'4 7.5
2018-May-29 02:30N 01°16' E 104°01'612.5
2018-May-29 02:00N 01°17' E 104°07'4 7.9
2018-May-29 01:30N 01°17' E 104°11'3 6.1
2018-May-29 00:59N 01°18' E 104°14'3 7.0
2018-May-29 00:30N 01°19' E 104°18'4 8.8
2018-May-29 00:00N 01°21' E 104°22'4 8.8
2018-May-28 23:30N 01°24' E 104°25'5 8.7
2018-May-28 22:58N 01°27' E 104°28'810.7
2018-May-28 22:16N 01°32' E 104°33'410.9
2018-May-28 21:55N 01°36' E 104°35'1610.5
2018-May-28 20:26N 01°49' E 104°44'  

Dump ship's entire track history